createdAt,value
2022-09-11T00:01:27.226Z,43.04
2022-09-11T00:03:56.462Z,43.07
2022-09-11T00:06:30.089Z,43.10
2022-09-11T00:09:01.073Z,43.12
2022-09-11T00:11:31.135Z,43.08
2022-09-11T00:13:59.324Z,43.07
2022-09-11T00:16:28.927Z,43.09
2022-09-11T00:18:59.809Z,43.25
2022-09-11T00:21:29.439Z,43.22
2022-09-11T00:23:58.237Z,43.29
2022-09-11T00:26:26.743Z,43.29
2022-09-11T00:28:55.337Z,43.34
2022-09-11T00:31:25.490Z,43.34
2022-09-11T00:33:53.995Z,43.43
2022-09-11T00:36:24.401Z,43.46
2022-09-11T00:38:53.874Z,43.43
2022-09-11T00:41:24.275Z,43.50
2022-09-11T00:44:00.252Z,43.57
2022-09-11T00:46:37.250Z,43.60
2022-09-11T00:49:15.946Z,43.65
2022-09-11T00:51:47.850Z,43.72
2022-09-11T00:54:23.086Z,43.85
2022-09-11T00:56:51.628Z,43.92
2022-09-11T00:59:25.198Z,43.98
2022-09-11T01:01:53.443Z,43.96
2022-09-11T01:04:23.129Z,43.96
2022-09-11T01:06:52.764Z,44.02
2022-09-11T01:09:22.497Z,44.06
2022-09-11T01:12:01.033Z,44.11
2022-09-11T01:14:39.523Z,44.19
2022-09-11T01:17:18.138Z,44.30
2022-09-11T01:20:14.242Z,44.33
2022-09-11T01:22:59.127Z,44.43
2022-09-11T01:25:37.744Z,44.49
2022-09-11T01:28:12.008Z,44.56
2022-09-11T01:30:46.575Z,44.60
2022-09-11T01:33:20.048Z,44.64
2022-09-11T01:35:56.359Z,44.71
2022-09-11T01:38:31.657Z,44.71
2022-09-11T01:41:05.648Z,44.77
2022-09-11T01:43:38.811Z,44.77
2022-09-11T01:46:11.149Z,44.78
2022-09-11T01:48:44.717Z,44.76
2022-09-11T01:51:16.481Z,44.80
2022-09-11T01:53:50.368Z,44.80
2022-09-11T01:56:22.707Z,44.74
2022-09-11T01:58:59.595Z,45.00
2022-09-11T02:01:31.858Z,44.75
2022-09-11T02:04:10.580Z,44.87
2022-09-11T02:06:46.938Z,44.85
2022-09-11T02:09:22.826Z,44.90
2022-09-11T02:11:55.059Z,44.93
2022-09-11T02:14:30.511Z,44.87
2022-09-11T02:17:05.175Z,44.89
2022-09-11T02:19:33.621Z,44.83
2022-09-11T02:22:02.005Z,44.84
2022-09-11T02:24:30.106Z,44.86
2022-09-11T02:27:02.092Z,44.84
2022-09-11T02:29:33.562Z,44.81
2022-09-11T02:32:03.678Z,44.82
2022-09-11T02:34:35.403Z,45.00
2022-09-11T02:37:16.781Z,44.98
2022-09-11T02:40:05.819Z,44.86
2022-09-11T02:42:49.053Z,44.72
2022-09-11T02:45:30.469Z,44.71
2022-09-11T02:48:16.543Z,44.62
2022-09-11T02:50:54.108Z,44.55
2022-09-11T02:53:29.060Z,44.54
2022-09-11T02:56:04.439Z,44.45
2022-09-11T02:58:40.088Z,44.44
2022-09-11T03:01:10.813Z,44.36
2022-09-11T03:03:41.937Z,44.28
2022-09-11T03:06:14.963Z,44.35
2022-09-11T03:08:42.878Z,44.36
2022-09-11T03:11:11.063Z,44.32
2022-09-11T03:13:39.587Z,44.23
2022-09-11T03:16:12.419Z,44.24
2022-09-11T03:18:40.565Z,44.13
2022-09-11T03:21:11.386Z,44.06
2022-09-11T03:23:39.603Z,44.02
2022-09-11T03:26:07.505Z,44.03
2022-09-11T03:28:35.749Z,43.97
2022-09-11T03:31:09.895Z,43.97
2022-09-11T03:33:40.079Z,43.95
2022-09-11T03:36:11.694Z,43.91
2022-09-11T03:38:40.207Z,43.89
2022-09-11T03:41:09.514Z,43.87
2022-09-11T03:43:37.711Z,43.83
2022-09-11T03:46:06.990Z,43.85
2022-09-11T03:48:36.509Z,43.87
2022-09-11T03:51:06.605Z,43.94
2022-09-11T03:53:35.525Z,43.89
2022-09-11T03:56:06.430Z,43.83
2022-09-11T03:58:40.784Z,43.82
2022-09-11T04:01:12.228Z,43.81
2022-09-11T04:03:40.998Z,43.75
2022-09-11T04:06:14.025Z,43.71
2022-09-11T04:08:42.250Z,43.72
2022-09-11T04:11:12.673Z,43.73
2022-09-11T04:13:43.793Z,43.75
2022-09-11T04:16:17.035Z,43.72
2022-09-11T04:18:49.399Z,43.68
2022-09-11T04:21:19.542Z,43.67
2022-09-11T04:23:53.401Z,43.64
2022-09-11T04:26:24.217Z,43.59
2022-09-11T04:28:57.170Z,43.56
2022-09-11T04:31:26.251Z,43.54
2022-09-11T04:33:57.743Z,43.56
2022-09-11T04:36:30.664Z,43.53
2022-09-11T04:39:00.209Z,43.52
2022-09-11T04:41:29.076Z,43.48
2022-09-11T04:44:04.857Z,43.51
2022-09-11T04:46:34.615Z,43.43
2022-09-11T04:49:04.095Z,43.42
2022-09-11T04:51:36.611Z,43.50
2022-09-11T04:54:06.133Z,43.44
2022-09-11T04:56:38.961Z,43.45
2022-09-11T04:59:13.168Z,43.48
2022-09-11T05:01:44.313Z,43.55
2022-09-11T05:04:13.839Z,43.48
2022-09-11T05:06:48.289Z,43.49
2022-09-11T05:09:19.281Z,43.51
2022-09-11T05:11:49.070Z,43.45
2022-09-11T05:14:18.396Z,43.45
2022-09-11T05:16:48.591Z,43.44
2022-09-11T05:19:20.660Z,43.41
2022-09-11T05:21:51.091Z,43.45
2022-09-11T05:24:19.978Z,43.44
2022-09-11T05:26:48.122Z,43.38
2022-09-11T05:29:17.506Z,43.54
2022-09-11T05:31:55.757Z,43.38
2022-09-11T05:34:24.727Z,43.37
2022-09-11T05:36:54.180Z,43.31
2022-09-11T05:39:22.341Z,43.28
2022-09-11T05:41:51.450Z,43.28
2022-09-11T05:44:19.696Z,43.29
2022-09-11T05:46:48.416Z,43.35
2022-09-11T05:49:16.864Z,43.31
2022-09-11T05:51:44.764Z,43.28
2022-09-11T05:54:14.066Z,43.32
2022-09-11T05:56:42.501Z,43.29
2022-09-11T05:59:17.447Z,43.29
2022-09-11T06:01:50.317Z,43.31
2022-09-11T06:04:28.062Z,43.27
2022-09-11T06:06:58.496Z,43.32
2022-09-11T06:09:29.795Z,43.35
2022-09-11T06:11:57.986Z,43.33
2022-09-11T06:14:26.034Z,43.30
2022-09-11T06:16:54.224Z,43.30
2022-09-11T06:19:22.240Z,43.28
2022-09-11T06:21:50.992Z,43.25
2022-09-11T06:24:25.813Z,43.31
2022-09-11T06:26:55.167Z,43.23
2022-09-11T06:29:23.850Z,43.21
2022-09-11T06:31:52.988Z,43.20
2022-09-11T06:34:24.497Z,43.09
2022-09-11T06:36:53.434Z,43.10
2022-09-11T06:39:23.377Z,43.11
2022-09-11T06:41:53.234Z,43.11
2022-09-11T06:44:29.842Z,43.22
2022-09-11T06:47:00.825Z,43.13
2022-09-11T06:49:29.156Z,43.11
2022-09-11T06:52:15.921Z,43.14
2022-09-11T06:54:53.135Z,43.15
2022-09-11T06:57:22.422Z,43.17
2022-09-11T06:59:52.172Z,43.13
2022-09-11T07:02:21.211Z,43.27
2022-09-11T07:04:49.388Z,43.23
2022-09-11T07:07:19.199Z,43.21
2022-09-11T07:09:47.170Z,43.19
2022-09-11T07:12:15.415Z,43.26
2022-09-11T07:14:43.750Z,43.36
2022-09-11T07:17:18.893Z,43.35
2022-09-11T07:19:50.152Z,43.33
2022-09-11T07:22:19.784Z,43.37
2022-09-11T07:24:49.702Z,43.40
2022-09-11T07:27:19.434Z,43.36
2022-09-11T07:29:49.014Z,43.41
2022-09-11T07:32:18.272Z,43.45
2022-09-11T07:34:47.664Z,43.48
2022-09-11T07:37:16.189Z,43.49
2022-09-11T07:39:44.245Z,43.53
2022-09-11T07:42:19.309Z,43.58
2022-09-11T07:44:48.131Z,43.63
2022-09-11T07:47:18.219Z,43.70
2022-09-11T07:49:50.554Z,43.66
2022-09-11T07:52:20.696Z,43.67
2022-09-11T07:54:55.344Z,43.71
2022-09-11T07:57:27.457Z,43.76
2022-09-11T07:59:56.045Z,43.75
2022-09-11T08:02:25.706Z,43.75
2022-09-11T08:04:55.108Z,43.76
2022-09-11T08:07:24.139Z,43.80
2022-09-11T08:10:10.199Z,43.78
2022-09-11T08:12:41.952Z,43.86
2022-09-11T08:15:10.514Z,43.94
2022-09-11T08:17:40.051Z,43.97
2022-09-11T08:20:09.454Z,44.02
2022-09-11T08:22:37.803Z,44.04
2022-09-11T08:25:07.224Z,44.05
2022-09-11T08:27:35.894Z,44.06
2022-09-11T08:30:04.253Z,44.10
2022-09-11T08:32:33.309Z,44.08
2022-09-11T08:35:03.999Z,44.12
2022-09-11T08:37:32.120Z,44.19
2022-09-11T08:40:00.887Z,44.21
2022-09-11T08:42:30.945Z,44.26
2022-09-11T08:45:01.095Z,44.29
2022-09-11T08:47:42.784Z,44.33
2022-09-11T08:50:20.371Z,44.35
2022-09-11T08:52:51.240Z,44.36
2022-09-11T08:55:32.139Z,44.35
2022-09-11T08:58:12.441Z,44.39
2022-09-11T09:00:46.435Z,44.49
2022-09-11T09:03:39.700Z,44.41
2022-09-11T09:06:29.212Z,44.39
2022-09-11T09:09:09.443Z,44.38
2022-09-11T09:11:43.271Z,44.36
2022-09-11T09:14:45.141Z,44.42
2022-09-11T09:17:20.192Z,44.38
2022-09-11T09:19:56.851Z,44.40
2022-09-11T09:22:34.959Z,44.32
2022-09-11T09:25:10.738Z,44.34
2022-09-11T09:27:45.605Z,44.23
2022-09-11T09:30:18.021Z,44.20
2022-09-11T09:32:53.562Z,44.21
2022-09-11T09:35:25.253Z,44.29
2022-09-11T09:37:56.389Z,44.15
2022-09-11T09:40:26.881Z,44.22
2022-09-11T09:43:19.972Z,44.23
2022-09-11T09:46:11.476Z,44.25
2022-09-11T09:48:41.273Z,44.27
2022-09-11T09:51:14.258Z,44.23
2022-09-11T09:53:49.052Z,44.20
2022-09-11T09:56:20.355Z,44.18
2022-09-11T09:58:56.507Z,44.18
2022-09-11T10:01:44.066Z,44.21
2022-09-11T10:04:16.623Z,44.22
2022-09-11T10:06:46.894Z,44.35
2022-09-11T10:09:28.749Z,44.50
2022-09-11T10:12:02.716Z,44.63
2022-09-11T10:14:51.067Z,44.75
2022-09-11T10:17:33.823Z,44.83
2022-09-11T10:20:22.045Z,44.93
2022-09-11T10:22:50.970Z,45.08
2022-09-11T10:25:23.793Z,45.20
2022-09-11T10:28:03.519Z,45.35
2022-09-11T10:30:36.159Z,45.43
2022-09-11T10:33:08.389Z,45.85
2022-09-11T10:35:37.785Z,46.16
2022-09-11T10:38:26.404Z,46.48
2022-09-11T10:41:07.901Z,46.87
2022-09-11T10:43:42.499Z,47.12
2022-09-11T10:46:25.726Z,47.56
2022-09-11T10:48:55.795Z,47.88
2022-09-11T10:51:24.748Z,48.22
2022-09-11T10:54:07.667Z,48.67
2022-09-11T10:56:44.090Z,49.30
2022-09-11T10:59:18.362Z,50.05
2022-09-11T11:01:46.874Z,50.75
2022-09-11T11:04:15.294Z,52.14
2022-09-11T11:06:59.544Z,53.76
2022-09-11T11:46:38.545Z,100.00
2022-09-11T11:54:37.086Z,100.00
2022-09-11T11:57:15.462Z,100.00
2022-09-11T12:00:11.582Z,100.00
2022-09-11T12:03:03.888Z,100.00
2022-09-11T12:05:41.995Z,100.00
2022-09-11T12:08:19.069Z,100.00
2022-09-11T12:24:33.221Z,100.00
2022-09-11T12:27:50.198Z,100.00
2022-09-11T12:30:27.803Z,100.00
2022-09-11T12:33:24.805Z,100.00
2022-09-11T12:35:58.412Z,100.00
2022-09-11T12:38:39.749Z,100.00
2022-09-11T12:41:17.660Z,100.00
2022-09-11T12:43:57.635Z,100.00
2022-09-11T12:47:54.620Z,100.00
2022-09-11T12:50:30.143Z,100.00
2022-09-11T12:53:02.516Z,100.00
2022-09-11T12:55:43.429Z,100.00
2022-09-11T12:58:38.774Z,100.00
2022-09-11T13:01:24.526Z,100.00
2022-09-11T13:44:15.185Z,100.00
2022-09-11T13:59:18.852Z,100.00
2022-09-11T14:02:45.741Z,100.00
2022-09-11T14:08:46.468Z,100.00
2022-09-11T14:11:44.510Z,100.00
2022-09-11T14:14:34.277Z,100.00
2022-09-11T14:17:13.940Z,100.00
2022-09-11T14:19:50.422Z,100.00
2022-09-11T14:22:25.884Z,100.00
2022-09-11T14:25:00.657Z,100.00
2022-09-11T14:27:44.440Z,100.00
2022-09-11T14:30:39.349Z,100.00
2022-09-11T14:33:40.569Z,100.00
2022-09-11T14:36:19.427Z,100.00
2022-09-11T14:38:49.010Z,100.00
2022-09-11T14:41:20.874Z,100.00
2022-09-11T14:43:53.435Z,100.00
2022-09-11T14:46:23.920Z,100.00
2022-09-11T14:48:55.380Z,100.00
2022-09-11T14:51:46.219Z,100.00
2022-09-11T14:54:17.675Z,100.00
2022-09-11T14:56:53.829Z,100.00
2022-09-11T14:59:23.696Z,100.00
2022-09-11T15:01:55.304Z,100.00
2022-09-11T15:10:04.713Z,100.00
2022-09-11T15:16:04.887Z,100.00
2022-09-11T15:18:43.353Z,100.00
2022-09-11T15:21:14.594Z,100.00
2022-09-11T15:24:02.814Z,100.00
2022-09-11T15:27:22.919Z,100.00
2022-09-11T15:30:00.107Z,100.00
2022-09-11T15:32:51.440Z,100.00
2022-09-11T15:44:41.801Z,100.00
2022-09-11T15:47:19.975Z,100.00
2022-09-11T15:49:50.292Z,100.00
2022-09-11T15:52:39.243Z,100.00
2022-09-11T15:55:17.445Z,100.00
2022-09-11T15:57:46.263Z,100.00
2022-09-11T16:00:17.372Z,100.00
2022-09-11T16:02:48.518Z,100.00
2022-09-11T16:05:23.452Z,100.00
2022-09-11T16:11:48.094Z,100.00
2022-09-11T16:14:59.865Z,100.00
2022-09-11T16:22:41.125Z,100.00
2022-09-11T16:25:32.604Z,100.00
2022-09-11T16:28:09.136Z,100.00
2022-09-11T16:30:46.573Z,100.00
2022-09-11T16:37:52.768Z,100.00
2022-09-11T16:41:48.787Z,100.00
2022-09-11T17:14:37.094Z,100.00
2022-09-11T17:17:07.159Z,100.00
2022-09-11T17:19:35.951Z,100.00
2022-09-11T17:22:04.500Z,100.00
2022-09-11T17:24:34.748Z,100.00
2022-09-11T17:27:02.873Z,100.00
2022-09-11T17:29:30.892Z,100.00
2022-09-11T17:32:26.156Z,100.00
2022-09-11T17:34:48.683Z,100.00
2022-09-11T17:37:17.311Z,100.00
2022-09-11T17:39:45.829Z,100.00
2022-09-11T17:42:14.190Z,100.00
2022-09-11T17:44:42.812Z,100.00
2022-09-11T17:47:12.381Z,100.00
2022-09-11T17:49:40.594Z,100.00
2022-09-11T17:52:08.476Z,100.00
2022-09-11T17:54:36.501Z,100.00
2022-09-11T17:57:04.995Z,100.00
2022-09-11T17:59:33.049Z,100.00
2022-09-11T18:02:04.837Z,100.00
2022-09-11T18:04:34.560Z,100.00
2022-09-11T18:07:04.341Z,100.00
2022-09-11T18:09:32.513Z,100.00
2022-09-11T18:12:03.574Z,100.00
2022-09-11T18:14:32.418Z,100.00
2022-09-11T18:17:00.576Z,100.00
2022-09-11T18:19:29.143Z,100.00
2022-09-11T18:21:59.854Z,100.00
2022-09-11T18:24:29.920Z,100.00
2022-09-11T18:27:00.907Z,100.00
2022-09-11T18:29:30.706Z,100.00
2022-09-11T18:32:00.216Z,100.00
2022-09-11T18:34:29.624Z,100.00
2022-09-11T18:37:00.101Z,100.00
2022-09-11T18:39:28.255Z,100.00
2022-09-11T18:41:57.276Z,100.00
2022-09-11T18:44:25.898Z,100.00
2022-09-11T18:46:55.811Z,100.00
2022-09-11T18:49:24.473Z,100.00
2022-09-11T18:51:53.722Z,100.00
2022-09-11T18:54:23.700Z,100.00
2022-09-11T18:56:52.077Z,100.00
2022-09-11T18:59:20.441Z,100.00
2022-09-11T19:01:48.742Z,100.00
2022-09-11T19:04:17.376Z,100.00
2022-09-11T19:06:46.315Z,100.00
2022-09-11T19:09:14.914Z,100.00
2022-09-11T19:11:45.502Z,100.00
2022-09-11T19:14:14.191Z,100.00
2022-09-11T19:16:42.526Z,100.00
2022-09-11T19:19:10.876Z,100.00
2022-09-11T19:21:39.938Z,100.00
2022-09-11T19:24:08.605Z,100.00
2022-09-11T19:26:39.205Z,100.00
2022-09-11T19:29:09.691Z,100.00
2022-09-11T19:31:39.440Z,100.00
2022-09-11T19:34:08.693Z,100.00
2022-09-11T19:36:37.143Z,100.00
2022-09-11T19:39:06.678Z,100.00
2022-09-11T19:41:37.422Z,100.00
2022-09-11T19:44:09.385Z,100.00
2022-09-11T19:46:38.130Z,100.00
2022-09-11T19:49:08.070Z,100.00
2022-09-11T19:51:37.581Z,100.00
2022-09-11T19:54:06.513Z,100.00
2022-09-11T19:56:38.299Z,100.00
2022-09-11T19:59:11.315Z,100.00
2022-09-11T20:01:39.714Z,100.00
2022-09-11T20:04:11.508Z,100.00
2022-09-11T20:09:30.567Z,98.34
2022-09-11T20:12:00.833Z,98.36
2022-09-11T20:14:31.296Z,97.26
2022-09-11T20:17:05.874Z,95.48
2022-09-11T20:19:34.086Z,91.27
2022-09-11T20:22:02.148Z,89.01
2022-09-11T20:24:30.245Z,86.72
2022-09-11T20:27:00.379Z,84.78
2022-09-11T20:29:30.305Z,82.35
2022-09-11T20:32:00.452Z,80.53
2022-09-11T20:34:28.769Z,79.10
2022-09-11T20:37:00.710Z,78.21
2022-09-11T20:39:29.115Z,76.27
2022-09-11T20:41:57.299Z,75.25
2022-09-11T20:44:26.641Z,74.06
2022-09-11T20:46:56.246Z,73.91
2022-09-11T20:49:24.235Z,73.04
2022-09-11T20:51:52.135Z,72.60
2022-09-11T20:54:20.035Z,71.99
2022-09-11T20:56:47.947Z,71.66
2022-09-11T20:59:16.142Z,71.09
2022-09-11T21:01:44.335Z,70.91
2022-09-11T21:04:13.944Z,70.48
2022-09-11T21:06:41.923Z,70.18
2022-09-11T21:09:12.710Z,69.88
2022-09-11T21:11:42.224Z,69.15
2022-09-11T21:14:11.508Z,69.11
2022-09-11T21:16:39.613Z,68.68
2022-09-11T21:19:08.053Z,68.57
2022-09-11T21:21:40.141Z,68.45
2022-09-11T21:24:12.563Z,68.82
2022-09-11T21:26:41.213Z,68.15
2022-09-11T21:29:13.038Z,67.82
2022-09-11T21:31:41.193Z,67.39
2022-09-11T21:34:10.163Z,66.97
2022-09-11T21:36:39.661Z,66.51
2022-09-11T21:39:07.979Z,65.89
2022-09-11T21:41:35.970Z,65.53
2022-09-11T21:44:04.597Z,64.99
2022-09-11T21:46:32.883Z,64.79
2022-09-11T21:49:01.732Z,65.31
2022-09-11T21:51:29.879Z,65.89
2022-09-11T21:54:01.653Z,65.77
2022-09-11T21:56:32.071Z,65.83
2022-09-11T21:59:01.847Z,66.13
2022-09-11T22:01:31.907Z,66.37
2022-09-11T22:04:03.568Z,66.58
2022-09-11T22:06:32.328Z,66.54
2022-09-11T22:09:01.710Z,66.66
2022-09-11T22:11:29.670Z,66.83
2022-09-11T22:13:57.684Z,67.02
2022-09-11T22:16:25.767Z,67.25
2022-09-11T22:18:55.481Z,66.84
2022-09-11T22:21:24.762Z,66.63
2022-09-11T22:23:52.658Z,65.64
2022-09-11T22:26:23.897Z,65.32
2022-09-11T22:28:52.030Z,64.94
2022-09-11T22:31:21.841Z,64.71
2022-09-11T22:33:49.911Z,64.17
2022-09-11T22:36:20.443Z,63.56
2022-09-11T22:38:48.999Z,62.83
2022-09-11T22:41:17.586Z,62.49
2022-09-11T22:43:48.838Z,62.13
2022-09-11T22:46:17.386Z,62.07
2022-09-11T22:48:45.418Z,61.51
2022-09-11T22:51:13.700Z,61.48
2022-09-11T22:53:41.846Z,61.27
2022-09-11T22:56:10.377Z,60.95
2022-09-11T22:58:39.335Z,61.01
2022-09-11T23:01:11.143Z,60.97
2022-09-11T23:03:39.432Z,61.10
2022-09-11T23:06:25.156Z,61.17
2022-09-11T23:08:53.525Z,60.88
2022-09-11T23:11:22.021Z,60.69
2022-09-11T23:13:50.795Z,60.34
2022-09-11T23:16:22.727Z,60.05
2022-09-11T23:18:54.864Z,60.05
2022-09-11T23:21:22.909Z,60.00
2022-09-11T23:23:54.333Z,59.79
2022-09-11T23:26:23.794Z,59.49
2022-09-11T23:28:51.847Z,59.47
2022-09-11T23:31:25.185Z,59.47
2022-09-11T23:33:55.419Z,59.26
2022-09-11T23:36:24.207Z,59.26
2022-09-11T23:38:52.373Z,59.06
2022-09-11T23:41:20.648Z,59.12
2022-09-11T23:43:49.549Z,59.28
2022-09-11T23:46:18.161Z,59.21
2022-09-11T23:48:47.585Z,58.99
2022-09-11T23:51:15.892Z,58.96
2022-09-11T23:53:47.545Z,58.74
2022-09-11T23:56:16.218Z,58.78
2022-09-11T23:58:45.630Z,58.81
